createdAt,value
2023-04-08T00:00:47.355Z,0.0000
2023-04-08T00:01:48.349Z,0.0000
2023-04-08T00:02:49.141Z,0.0000
2023-04-08T00:03:50.075Z,0.0000
2023-04-08T00:04:50.901Z,0.0000
2023-04-08T00:05:51.867Z,0.0000
2023-04-08T00:06:52.423Z,0.0000
2023-04-08T00:07:52.992Z,0.0000
2023-04-08T00:08:53.353Z,0.0000
2023-04-08T00:09:54.054Z,0.0000
2023-04-08T00:10:54.505Z,0.0000
2023-04-08T00:11:55.037Z,0.0000
2023-04-08T00:12:55.440Z,0.0000
2023-04-08T00:13:55.959Z,0.0000
2023-04-08T00:14:56.315Z,0.0000
2023-04-08T00:15:56.882Z,0.0000
2023-04-08T00:16:57.796Z,0.0000
2023-04-08T00:17:58.271Z,0.0000
2023-04-08T00:18:58.907Z,0.0000
2023-04-08T00:19:59.636Z,0.0000
2023-04-08T00:21:00.189Z,0.0000
2023-04-08T00:22:00.615Z,0.0000
2023-04-08T00:23:01.204Z,0.0000
2023-04-08T00:24:01.764Z,0.0000
2023-04-08T00:25:02.145Z,0.0000
2023-04-08T00:26:02.690Z,0.0000
2023-04-08T00:27:03.074Z,0.0000
2023-04-08T00:28:03.631Z,0.0000
2023-04-08T00:29:04.066Z,0.0000
2023-04-08T00:30:04.633Z,0.0000
2023-04-08T00:31:05.441Z,0.0000
2023-04-08T00:32:06.186Z,0.0000
2023-04-08T00:33:07.066Z,0.0000
2023-04-08T00:34:07.430Z,0.0000
2023-04-08T00:35:08.029Z,0.0000
2023-04-08T00:36:08.801Z,0.0000
2023-04-08T00:37:09.231Z,0.0000
2023-04-08T00:38:09.759Z,0.0000
2023-04-08T00:39:10.132Z,0.0000
2023-04-08T00:40:10.712Z,0.0000
2023-04-08T00:41:11.211Z,0.0000
2023-04-08T00:42:11.637Z,0.0000
2023-04-08T00:43:12.145Z,0.0000
2023-04-08T00:44:12.586Z,0.0000
2023-04-08T00:45:13.069Z,0.0000
2023-04-08T00:46:13.757Z,0.0000
2023-04-08T00:47:14.621Z,0.0000
2023-04-08T00:48:15.318Z,0.0000
2023-04-08T00:49:16.097Z,0.0000
2023-04-08T00:50:16.492Z,0.0000
2023-04-08T00:51:17.037Z,0.0000
2023-04-08T00:52:17.596Z,0.0000
2023-04-08T00:53:17.971Z,0.0000
2023-04-08T00:54:18.555Z,0.0000
2023-04-08T00:55:18.982Z,0.0000
2023-04-08T00:56:19.444Z,0.0000
2023-04-08T00:57:19.943Z,0.0000
2023-04-08T00:58:20.557Z,0.0000
2023-04-08T00:59:21.680Z,0.0000
2023-04-08T01:00:22.132Z,0.0000
2023-04-08T01:01:22.923Z,0.0000
2023-04-08T01:02:24.142Z,0.0000
2023-04-08T01:03:25.119Z,0.0000
2023-04-08T01:04:25.115Z,0.0000
2023-04-08T01:05:25.971Z,0.0000
2023-04-08T01:06:26.408Z,0.0000
2023-04-08T01:07:27.075Z,0.0000
2023-04-08T01:08:27.756Z,0.0000
2023-04-08T01:09:28.261Z,0.0000
2023-04-08T01:10:29.001Z,0.0000
2023-04-08T01:11:29.534Z,0.0000
2023-04-08T01:12:30.243Z,0.0000
2023-04-08T01:13:30.721Z,0.0000
2023-04-08T01:14:31.272Z,0.0000
2023-04-08T01:15:32.015Z,0.0000
2023-04-08T01:16:32.621Z,0.0000
2023-04-08T01:17:33.368Z,0.0000
2023-04-08T01:18:34.111Z,0.0000
2023-04-08T01:19:34.754Z,0.0000
2023-04-08T01:20:35.440Z,0.0000
2023-04-08T01:21:35.868Z,0.0000
2023-04-08T01:22:36.481Z,0.0000
2023-04-08T01:23:36.943Z,0.0000
2023-04-08T01:24:37.609Z,0.0000
2023-04-08T01:25:38.166Z,0.0000
2023-04-08T01:26:38.832Z,0.0000
2023-04-08T01:27:39.496Z,0.0000
2023-04-08T01:28:39.981Z,0.0000
2023-04-08T01:29:40.639Z,0.0000
2023-04-08T01:30:40.962Z,0.0000
2023-04-08T01:31:41.928Z,0.0000
2023-04-08T01:32:42.019Z,0.0000
2023-04-08T01:33:42.651Z,0.0000
2023-04-08T01:34:43.320Z,0.0000
2023-04-08T01:35:43.912Z,0.0000
2023-04-08T01:36:44.848Z,0.0000
2023-04-08T01:37:45.469Z,0.0000
2023-04-08T01:38:46.024Z,0.0000
2023-04-08T01:39:47.279Z,0.0000
2023-04-08T01:40:47.977Z,0.0000
2023-04-08T01:41:48.536Z,0.0000
2023-04-08T01:42:49.222Z,0.0000
2023-04-08T01:43:49.695Z,0.0000
2023-04-08T01:44:50.275Z,0.0000
2023-04-08T01:45:50.782Z,0.0000
2023-04-08T01:46:51.573Z,0.0000
2023-04-08T01:47:52.746Z,0.0000
2023-04-08T01:48:53.261Z,0.0000
2023-04-08T01:49:53.848Z,0.0000
2023-04-08T01:50:54.308Z,0.0000
2023-04-08T01:51:54.971Z,0.0000
2023-04-08T01:52:55.402Z,0.0000
2023-04-08T01:53:56.087Z,0.0000
2023-04-08T01:54:56.674Z,0.0000
2023-04-08T01:55:57.242Z,0.0000
2023-04-08T01:56:57.824Z,0.0000
2023-04-08T01:57:58.316Z,0.0000
2023-04-08T01:58:59.505Z,0.0000
2023-04-08T02:00:00.157Z,0.0000
2023-04-08T02:01:00.587Z,0.0000
2023-04-08T02:02:01.687Z,0.0000
2023-04-08T02:03:03.286Z,0.0000
2023-04-08T02:04:04.290Z,0.0000
2023-04-08T02:05:05.200Z,0.0000
2023-04-08T02:06:05.937Z,0.0000
2023-04-08T02:07:06.515Z,0.0000
2023-04-08T02:08:07.161Z,0.0000
2023-04-08T02:09:07.866Z,0.0000
2023-04-08T02:10:08.531Z,0.0000
2023-04-08T02:11:09.025Z,0.0000
2023-04-08T02:12:09.681Z,0.0000
2023-04-08T02:13:10.410Z,0.0000
2023-04-08T02:14:10.920Z,0.0000
2023-04-08T02:15:11.582Z,0.0000
2023-04-08T02:16:12.193Z,0.0000
2023-04-08T02:17:13.060Z,0.0000
2023-04-08T02:18:13.933Z,0.0000
2023-04-08T02:19:14.478Z,0.0000
2023-04-08T02:20:15.155Z,0.0000
2023-04-08T02:21:15.700Z,0.0000
2023-04-08T02:22:16.265Z,0.0000
2023-04-08T02:23:17.011Z,0.0000
2023-04-08T02:24:17.472Z,0.0000
2023-04-08T02:25:18.065Z,0.0000
2023-04-08T02:26:18.670Z,0.0000
2023-04-08T02:27:19.349Z,0.0000
2023-04-08T02:28:20.083Z,0.0000
2023-04-08T02:29:20.081Z,0.0000
2023-04-08T02:30:20.733Z,0.0000
2023-04-08T02:31:21.284Z,0.0000
2023-04-08T02:32:22.259Z,0.0000
2023-04-08T02:33:23.106Z,0.0000
2023-04-08T02:34:23.849Z,0.0000
2023-04-08T02:35:24.650Z,0.0000
2023-04-08T02:36:25.483Z,0.0000
2023-04-08T02:37:26.081Z,0.0000
2023-04-08T02:38:26.623Z,0.0000
2023-04-08T02:39:26.670Z,0.0000
2023-04-08T02:40:27.229Z,0.0000
2023-04-08T02:41:27.773Z,0.0000
2023-04-08T02:42:28.231Z,0.0000
2023-04-08T02:43:28.948Z,0.0000
2023-04-08T02:44:29.283Z,0.0000
2023-04-08T02:45:29.800Z,0.0000
2023-04-08T02:46:30.695Z,0.0000
2023-04-08T02:47:31.390Z,0.0000
2023-04-08T02:48:32.268Z,0.0000
2023-04-08T02:49:33.522Z,0.0000
2023-04-08T02:50:33.954Z,0.0000
2023-04-08T02:51:34.619Z,0.0000
2023-04-08T02:52:35.066Z,0.0000
2023-04-08T02:53:35.855Z,0.0000
2023-04-08T02:54:36.313Z,0.0000
2023-04-08T02:55:37.041Z,0.0000
2023-04-08T02:56:37.621Z,0.0000
2023-04-08T02:57:38.217Z,0.0000
2023-04-08T02:58:38.734Z,0.0000
2023-04-08T02:59:39.897Z,0.0000
2023-04-08T03:00:40.415Z,0.0000
2023-04-08T03:01:41.409Z,0.0000
2023-04-08T03:02:42.010Z,0.0000
2023-04-08T03:03:42.966Z,0.0000
2023-04-08T03:04:43.729Z,0.0000
2023-04-08T03:05:44.584Z,0.0000
2023-04-08T03:06:45.148Z,0.0000
2023-04-08T03:07:45.818Z,0.0000
2023-04-08T03:08:46.338Z,0.0000
2023-04-08T03:09:46.979Z,0.0000
2023-04-08T03:10:47.557Z,0.0000
2023-04-08T03:11:48.185Z,0.0000
2023-04-08T03:12:48.699Z,0.0000
2023-04-08T03:13:49.339Z,0.0000
2023-04-08T03:14:49.842Z,0.0000
2023-04-08T03:15:50.567Z,0.0000
2023-04-08T03:16:51.366Z,0.0000
2023-04-08T03:17:52.315Z,0.0000
2023-04-08T03:18:53.039Z,0.0000
2023-04-08T03:19:53.901Z,0.0000
2023-04-08T03:20:54.664Z,0.0000
2023-04-08T03:21:55.254Z,0.0000
2023-04-08T03:22:56.017Z,0.0000
2023-04-08T03:23:56.502Z,0.0000
2023-04-08T03:24:57.224Z,0.0000
2023-04-08T03:25:57.745Z,0.0000
2023-04-08T03:26:58.641Z,0.0000
2023-04-08T03:27:59.383Z,0.0000
2023-04-08T03:29:00.502Z,0.0000
2023-04-08T03:30:00.911Z,0.0000
2023-04-08T03:31:01.034Z,0.0000
2023-04-08T03:32:02.031Z,0.0000
2023-04-08T03:33:02.859Z,0.0000
2023-04-08T03:34:03.673Z,0.0000
2023-04-08T03:35:04.330Z,0.0000
2023-04-08T03:36:05.625Z,0.0000
2023-04-08T03:37:06.221Z,0.0000
2023-04-08T03:38:06.958Z,0.0000
2023-04-08T03:39:07.767Z,0.0000
2023-04-08T03:40:08.366Z,0.0000
2023-04-08T03:41:09.107Z,0.0000
2023-04-08T03:42:09.679Z,0.0000
2023-04-08T03:43:10.458Z,0.0000
2023-04-08T03:44:11.128Z,0.0000
2023-04-08T03:45:11.846Z,0.0000
2023-04-08T03:46:12.678Z,0.0000
2023-04-08T03:47:13.821Z,0.0000
2023-04-08T03:48:14.726Z,0.0000
2023-04-08T03:49:14.886Z,0.0000
2023-04-08T03:50:15.441Z,0.0000
2023-04-08T03:51:16.284Z,0.0000
2023-04-08T03:52:16.997Z,0.0000
2023-04-08T03:53:17.586Z,0.0000
2023-04-08T03:54:18.420Z,0.0000
2023-04-08T03:55:19.012Z,0.0000
2023-04-08T03:56:19.716Z,0.0000
2023-04-08T03:57:20.345Z,0.0000
2023-04-08T03:58:21.111Z,0.0000
2023-04-08T03:59:22.201Z,0.0000
2023-04-08T04:00:22.960Z,0.0000
2023-04-08T04:01:23.818Z,0.0000
2023-04-08T04:02:24.901Z,0.0000
2023-04-08T04:03:25.592Z,0.0000
2023-04-08T04:04:26.768Z,0.0000
2023-04-08T04:05:26.671Z,0.0000
2023-04-08T04:06:27.513Z,0.0000
2023-04-08T04:07:28.110Z,0.0000
2023-04-08T04:08:28.937Z,0.0000
2023-04-08T04:09:29.534Z,0.0000
2023-04-08T04:10:30.297Z,0.0000
2023-04-08T04:11:30.957Z,0.0000
2023-04-08T04:12:31.675Z,0.0000
2023-04-08T04:13:32.349Z,0.0000
2023-04-08T04:14:33.204Z,0.0000
2023-04-08T04:15:34.083Z,0.0000
2023-04-08T04:16:34.820Z,0.0000
2023-04-08T04:17:35.805Z,0.0000
2023-04-08T04:18:36.998Z,0.0000
2023-04-08T04:19:38.098Z,0.0000
2023-04-08T04:20:38.618Z,0.0000
2023-04-08T04:21:39.620Z,0.0000
2023-04-08T04:22:40.376Z,0.0000
2023-04-08T04:23:41.050Z,0.0000
2023-04-08T04:24:41.808Z,0.0000
2023-04-08T04:25:42.604Z,0.0000
2023-04-08T04:26:43.337Z,0.0000
2023-04-08T04:27:44.103Z,0.0000
2023-04-08T04:28:44.671Z,0.0000
2023-04-08T04:29:45.408Z,0.0000
2023-04-08T04:30:46.133Z,0.0000
2023-04-08T04:31:47.273Z,0.0000
2023-04-08T04:32:48.329Z,0.0000
2023-04-08T04:33:49.167Z,0.0000
2023-04-08T04:34:49.979Z,0.0000
2023-04-08T04:35:50.830Z,0.0000
2023-04-08T04:36:51.771Z,0.0000
2023-04-08T04:37:52.586Z,0.0000
2023-04-08T04:38:53.705Z,0.0000
2023-04-08T04:39:54.148Z,0.0000
2023-04-08T04:40:54.804Z,0.0000
2023-04-08T04:41:55.621Z,0.0000
2023-04-08T04:42:56.377Z,0.0000
2023-04-08T04:43:56.970Z,0.0000
2023-04-08T04:44:57.752Z,0.0000
2023-04-08T04:45:58.499Z,0.0000
2023-04-08T04:46:59.601Z,0.0000
2023-04-08T04:48:00.891Z,0.0000
2023-04-08T04:49:00.828Z,0.0000
2023-04-08T04:50:01.737Z,0.0000
2023-04-08T04:51:02.381Z,0.0000
2023-04-08T04:52:03.065Z,0.0000
2023-04-08T04:53:03.925Z,0.0000
2023-04-08T04:54:04.521Z,0.0000
2023-04-08T04:55:05.259Z,0.0000
2023-04-08T04:56:05.809Z,1.2784
2023-04-08T04:57:06.650Z,5.6250
2023-04-08T04:58:07.469Z,5.6250
2023-04-08T04:59:07.526Z,5.6250
2023-04-08T05:00:08.371Z,5.6250
2023-04-08T05:01:09.015Z,5.6250
2023-04-08T05:02:09.192Z,5.6250
2023-04-08T05:03:10.191Z,5.6250
2023-04-08T05:05:10.788Z,11.2500
2023-04-08T05:06:11.725Z,11.2500
2023-04-08T05:07:12.454Z,11.2500
2023-04-08T05:08:13.041Z,11.2500
2023-04-08T05:09:13.847Z,11.7614
2023-04-08T05:10:14.564Z,16.8750
2023-04-08T05:11:15.316Z,16.8750
2023-04-08T05:12:16.118Z,16.8750
2023-04-08T05:13:16.738Z,16.8750
2023-04-08T05:14:17.731Z,16.8750
2023-04-08T05:15:18.428Z,16.8750
2023-04-08T05:16:19.474Z,16.8750
2023-04-08T05:17:20.435Z,17.5142
2023-04-08T05:18:21.470Z,22.5000
2023-04-08T05:19:22.323Z,22.5000
2023-04-08T05:20:23.399Z,22.5000
2023-04-08T05:21:24.197Z,22.5000
2023-04-08T05:22:24.774Z,22.5000
2023-04-08T05:23:25.700Z,22.5000
2023-04-08T05:24:26.226Z,22.5000
2023-04-08T05:25:27.026Z,25.6960
2023-04-08T05:26:27.869Z,29.6948
2023-04-08T05:27:28.559Z,33.7500
2023-04-08T05:28:29.269Z,33.7500
2023-04-08T05:29:30.000Z,33.7500
2023-04-08T05:30:30.831Z,33.7500
2023-04-08T05:31:31.795Z,31.0653
2023-04-08T05:32:33.066Z,28.1250
2023-04-08T05:33:34.393Z,32.1802
2023-04-08T05:34:35.189Z,35.4119
2023-04-08T05:35:36.166Z,39.3750
2023-04-08T05:36:37.071Z,39.3750
2023-04-08T05:37:37.934Z,39.3750
2023-04-08T05:38:38.919Z,39.3750
2023-04-08T05:39:39.556Z,41.2926
2023-04-08T05:40:40.655Z,45.0000
2023-04-08T05:41:41.310Z,45.1278
2023-04-08T05:42:42.149Z,50.6250
2023-04-08T05:43:42.994Z,50.8807
2023-04-08T05:44:43.673Z,56.2500
2023-04-08T05:45:44.587Z,57.9119
2023-04-08T05:46:45.360Z,61.8750
2023-04-08T05:47:46.545Z,63.7926
2023-04-08T05:48:47.692Z,67.5000
2023-04-08T05:49:50.143Z,73.1250
2023-04-08T05:50:49.478Z,73.1250
2023-04-08T05:51:50.253Z,69.4176
2023-04-08T05:52:51.166Z,69.2898
2023-04-08T05:53:51.854Z,75.8097
2023-04-08T05:54:52.734Z,78.7500
2023-04-08T05:55:53.458Z,78.6222
2023-04-08T05:56:54.411Z,73.1250
2023-04-08T05:57:55.322Z,70.0568
2023-04-08T05:58:56.478Z,67.5000
2023-04-08T05:59:57.385Z,67.5000
2023-04-08T06:00:58.111Z,67.5000
2023-04-08T06:01:59.238Z,71.8466
2023-04-08T06:02:59.558Z,77.5446
2023-04-08T06:04:00.481Z,81.9055
2023-04-08T06:05:01.130Z,84.3750
2023-04-08T06:06:01.869Z,84.3750
2023-04-08T06:07:02.740Z,84.3750
2023-04-08T06:08:03.536Z,84.3750
2023-04-08T06:09:03.597Z,84.3750
2023-04-08T06:10:04.338Z,84.3750
2023-04-08T06:11:05.308Z,84.3750
2023-04-08T06:12:06.227Z,84.3750
2023-04-08T06:13:06.850Z,89.8722
2023-04-08T06:14:07.811Z,90.0000
2023-04-08T06:15:08.589Z,94.8580
2023-04-08T06:16:09.569Z,95.6250
2023-04-08T06:17:09.599Z,96.5407
2023-04-08T06:18:10.532Z,101.2500
2023-04-08T06:19:11.377Z,106.2358
2023-04-08T06:20:12.088Z,107.3864
2023-04-08T06:21:13.336Z,112.5000
2023-04-08T06:22:13.466Z,118.9099
2023-04-08T06:23:14.300Z,123.7500
2023-04-08T06:24:15.124Z,126.4347
2023-04-08T06:25:15.845Z,129.3750
2023-04-08T06:26:16.686Z,133.0824
2023-04-08T06:27:17.454Z,139.0909
2023-04-08T06:28:18.293Z,145.6108
2023-04-08T06:29:19.114Z,152.6420
2023-04-08T06:30:20.160Z,159.2898
2023-04-08T06:31:21.104Z,165.6818
2023-04-08T06:32:21.707Z,171.3663
2023-04-08T06:33:22.728Z,176.6761
2023-04-08T06:34:23.434Z,180.0000
2023-04-08T06:35:24.397Z,180.0000
2023-04-08T06:36:25.383Z,180.0000
2023-04-08T06:37:26.490Z,176.9318
2023-04-08T06:38:27.594Z,172.8409
2023-04-08T06:39:28.464Z,168.7500
2023-04-08T06:40:29.280Z,171.9460
2023-04-08T06:41:30.115Z,174.5028
2023-04-08T06:42:31.061Z,180.1278
2023-04-08T06:43:32.234Z,188.6932
2023-04-08T06:44:32.995Z,196.8750
2023-04-08T06:45:33.966Z,203.3949
2023-04-08T06:46:35.152Z,208.1250
2023-04-08T06:47:36.196Z,208.1250
2023-04-08T06:48:37.185Z,208.1250
2023-04-08T06:49:37.919Z,208.1250
2023-04-08T06:50:38.873Z,208.1250
2023-04-08T06:51:39.623Z,208.1250
2023-04-08T06:52:39.926Z,202.5000
2023-04-08T06:53:40.951Z,199.3040
2023-04-08T06:54:41.692Z,199.8153
2023-04-08T06:55:42.562Z,204.1619
2023-04-08T06:56:43.394Z,212.5994
2023-04-08T06:57:44.405Z,223.7216
2023-04-08T06:58:45.482Z,231.2642
2023-04-08T06:59:45.426Z,240.9593
2023-04-08T07:00:46.425Z,249.0341
2023-04-08T07:01:47.746Z,254.4034
2023-04-08T07:02:48.620Z,253.1250
2023-04-08T07:03:49.342Z,253.1250
2023-04-08T07:04:50.391Z,253.5085
2023-04-08T07:05:51.351Z,258.3665
2023-04-08T07:06:52.138Z,259.1335
2023-04-08T07:07:52.990Z,264.2472
2023-04-08T07:08:53.414Z,271.9622
2023-04-08T07:09:54.148Z,278.8210
2023-04-08T07:10:55.313Z,285.5357
2023-04-08T07:11:56.245Z,291.4773
2023-04-08T07:12:57.336Z,296.5909
2023-04-08T07:13:58.102Z,298.1250
2023-04-08T07:14:59.329Z,298.1250
2023-04-08T07:16:00.226Z,298.1250
2023-04-08T07:17:01.474Z,298.3807
2023-04-08T07:18:02.816Z,301.8324
2023-04-08T07:19:03.837Z,305.5398
2023-04-08T07:20:04.829Z,310.0142
2023-04-08T07:21:05.521Z,311.5179
2023-04-08T07:22:06.304Z,315.1278
2023-04-08T07:23:07.265Z,315.0000
2023-04-08T07:24:07.985Z,312.8267
2023-04-08T07:25:08.925Z,309.3750
2023-04-08T07:26:09.876Z,307.3296
2023-04-08T07:27:10.700Z,303.7500
2023-04-08T07:28:11.695Z,303.7500
2023-04-08T07:29:11.690Z,307.5436
2023-04-08T07:30:12.635Z,304.3892
2023-04-08T07:31:13.796Z,303.7500
2023-04-08T07:32:14.773Z,304.3892
2023-04-08T07:33:15.399Z,309.3750
2023-04-08T07:34:16.159Z,307.0739
2023-04-08T07:35:17.143Z,303.7500
2023-04-08T07:36:18.454Z,301.3210
2023-04-08T07:37:19.321Z,290.8381
2023-04-08T07:38:20.282Z,274.0909
2023-04-08T07:39:21.049Z,261.6903
2023-04-08T07:40:21.931Z,258.7500
2023-04-08T07:41:22.949Z,255.1705
2023-04-08T07:42:23.785Z,253.1250
2023-04-08T07:43:24.706Z,253.1250
2023-04-08T07:44:25.560Z,253.1250
2023-04-08T07:45:26.687Z,248.7784
2023-04-08T07:46:26.761Z,254.4331
2023-04-08T07:47:27.765Z,272.9403
2023-04-08T07:48:28.935Z,298.6364
2023-04-08T07:49:29.853Z,317.4290
2023-04-08T07:50:30.938Z,323.1818
2023-04-08T07:51:32.152Z,319.1734
2023-04-08T07:52:33.409Z,315.3835
2023-04-08T07:53:34.407Z,315.2557
2023-04-08T07:54:35.414Z,327.4006
2023-04-08T07:55:36.551Z,344.6591
2023-04-08T07:56:37.434Z,356.2064
2023-04-08T07:57:37.741Z,348.2267
2023-04-08T07:58:37.965Z,334.0988
2023-04-08T07:59:38.009Z,331.8750
2023-04-08T08:00:39.107Z,337.1165
2023-04-08T08:01:40.278Z,337.5000
2023-04-08T08:02:41.432Z,336.3227
2023-04-08T08:03:42.469Z,329.9128
2023-04-08T08:04:42.493Z,322.6829
2023-04-08T08:05:42.653Z,320.6250
2023-04-08T08:06:43.836Z,320.6250
2023-04-08T08:07:44.996Z,316.6619
2023-04-08T08:08:45.924Z,316.9176
2023-04-08T08:09:46.426Z,332.7907
2023-04-08T08:10:47.311Z,341.0796
2023-04-08T08:11:48.345Z,323.5653
2023-04-08T08:12:49.410Z,312.6989
2023-04-08T08:13:50.727Z,318.1960
2023-04-08T08:14:51.258Z,331.2209
2023-04-08T08:15:52.329Z,347.4716
2023-04-08T08:16:53.264Z,381.5843
2023-04-08T08:17:53.703Z,424.3605
2023-04-08T08:18:54.703Z,475.0568
2023-04-08T08:19:55.735Z,515.5824
2023-04-08T08:20:56.794Z,518.2670
2023-04-08T08:21:57.746Z,515.7102
2023-04-08T08:22:59.865Z,487.7027
2023-04-08T08:24:01.104Z,469.8153
2023-04-08T08:25:01.994Z,459.2046
2023-04-08T08:26:03.046Z,449.2329
2023-04-08T08:27:03.917Z,430.3125
2023-04-08T08:28:05.029Z,418.4233
2023-04-08T08:29:06.050Z,412.4148
2023-04-08T08:30:06.921Z,413.3097
2023-04-08T08:31:07.242Z,420.9146
2023-04-08T08:32:07.263Z,430.6395
2023-04-08T08:33:08.499Z,448.7216
2023-04-08T08:34:09.617Z,468.5369
2023-04-08T08:35:10.606Z,484.7727
2023-04-08T08:36:10.646Z,488.5901
2023-04-08T08:37:11.642Z,477.9972
2023-04-08T08:38:12.759Z,473.0114
2023-04-08T08:39:13.713Z,480.1704
2023-04-08T08:40:14.849Z,488.0966
2023-04-08T08:41:15.930Z,501.7756
2023-04-08T08:42:16.817Z,512.0029
2023-04-08T08:43:17.910Z,520.6960
2023-04-08T08:44:18.771Z,527.3438
2023-04-08T08:45:19.733Z,526.4489
2023-04-08T08:46:21.295Z,523.6364
2023-04-08T08:47:22.396Z,530.7955
2023-04-08T08:48:22.911Z,549.7408
2023-04-08T08:49:23.769Z,560.9659
2023-04-08T08:50:25.075Z,563.0114
2023-04-08T08:51:25.894Z,561.8608
2023-04-08T08:52:27.139Z,561.3494
2023-04-08T08:53:28.154Z,561.8608
2023-04-08T08:54:28.728Z,563.8082
2023-04-08T08:55:44.844Z,560.7422
2023-04-08T08:56:30.794Z,557.2379
2023-04-08T08:57:31.922Z,573.8779
2023-04-08T08:59:32.463Z,625.6534
2023-04-08T09:00:34.622Z,626.4205
2023-04-08T09:01:34.917Z,606.9767
2023-04-08T09:02:35.214Z,572.4107
2023-04-08T09:03:35.484Z,552.7592
2023-04-08T09:04:35.839Z,541.3393
2023-04-08T09:05:36.276Z,515.8929
2023-04-08T09:06:37.591Z,488.8636
2023-04-08T09:07:38.534Z,470.5824
2023-04-08T09:08:39.629Z,461.5057
2023-04-08T09:09:40.502Z,458.0540
2023-04-08T09:10:41.501Z,437.4716
2023-04-08T09:11:41.599Z,400.5523
2023-04-08T09:12:42.485Z,389.5312
2023-04-08T09:13:43.641Z,407.5568
2023-04-08T09:14:43.919Z,412.3256
2023-04-08T09:15:44.858Z,416.5057
2023-04-08T09:16:46.741Z,439.1335
2023-04-08T09:17:47.886Z,496.6619
2023-04-08T09:18:47.906Z,520.9012
2023-04-08T09:19:49.189Z,517.6279
2023-04-08T09:20:50.270Z,509.3182
2023-04-08T09:21:51.512Z,498.8352
2023-04-08T09:22:52.755Z,492.8267
2023-04-08T09:23:53.628Z,453.2704
2023-04-08T09:24:53.504Z,434.5640
2023-04-08T09:25:54.612Z,431.4631
2023-04-08T09:26:55.729Z,434.7869
2023-04-08T09:27:55.602Z,460.9884
2023-04-08T09:28:56.576Z,485.5398
2023-04-08T09:29:57.159Z,491.4375
2023-04-08T09:30:58.300Z,468.0256
2023-04-08T09:31:58.412Z,409.7093
2023-04-08T09:32:58.615Z,366.2791
2023-04-08T09:33:59.107Z,333.5756
2023-04-08T09:34:59.340Z,308.8517
2023-04-08T09:35:59.897Z,293.8393
2023-04-08T09:37:01.117Z,283.4233
2023-04-08T09:38:02.246Z,286.2358
2023-04-08T09:39:03.197Z,301.5767
2023-04-08T09:40:04.379Z,308.0966
2023-04-08T09:41:05.269Z,305.4119
2023-04-08T09:42:06.329Z,302.2159
2023-04-08T09:43:07.463Z,301.8324
2023-04-08T09:44:07.566Z,312.7762
2023-04-08T09:45:08.779Z,336.3494
2023-04-08T09:46:10.107Z,357.6989
2023-04-08T09:47:11.165Z,373.1676
2023-04-08T09:48:11.183Z,395.1890
2023-04-08T09:49:12.066Z,421.7472
2023-04-08T09:50:13.217Z,441.3068
2023-04-08T09:51:14.247Z,425.7102
2023-04-08T09:52:15.337Z,409.8579
2023-04-08T09:53:16.655Z,397.8409
2023-04-08T09:54:17.547Z,379.9432
2023-04-08T09:55:18.685Z,360.8949
2023-04-08T09:56:19.722Z,349.7727
2023-04-08T09:57:20.910Z,343.7642
2023-04-08T09:58:22.075Z,343.1250
2023-04-08T09:59:23.109Z,348.3665
2023-04-08T10:00:24.387Z,354.6307
2023-04-08T10:01:25.680Z,352.7131
2023-04-08T10:02:26.323Z,349.5349
2023-04-08T10:03:27.634Z,354.3750
2023-04-08T10:04:28.366Z,360.5233
2023-04-08T10:05:29.325Z,361.0976
2023-04-08T10:06:30.731Z,359.1051
2023-04-08T10:07:31.674Z,337.8835
2023-04-08T10:08:32.891Z,327.0171
2023-04-08T10:09:33.921Z,320.7528
2023-04-08T10:10:35.103Z,322.5426
2023-04-08T10:11:36.310Z,331.4915
2023-04-08T10:12:37.300Z,347.0881
2023-04-08T10:13:38.585Z,371.7614
2023-04-08T10:14:39.896Z,389.1477
2023-04-08T10:15:40.468Z,412.4564
2023-04-08T10:16:41.560Z,463.4738
2023-04-08T10:17:42.860Z,538.8494
2023-04-08T10:18:43.044Z,578.0668
2023-04-08T10:19:44.048Z,603.5369
2023-04-08T10:20:45.261Z,652.7557
2023-04-08T10:21:46.240Z,704.2756
2023-04-08T10:22:47.066Z,736.7442
2023-04-08T10:23:48.382Z,759.7585
2023-04-08T10:24:49.483Z,746.5909
2023-04-08T10:25:50.794Z,705.9375
2023-04-08T10:26:51.893Z,670.3977
2023-04-08T10:27:53.121Z,640.0994
2023-04-08T10:28:53.916Z,612.9942
2023-04-08T10:29:55.059Z,587.8125
2023-04-08T10:30:55.139Z,563.4157
2023-04-08T10:31:56.418Z,542.3011
2023-04-08T10:32:57.002Z,535.8140
2023-04-08T10:33:58.153Z,529.2988
2023-04-08T10:34:59.375Z,545.6250
2023-04-08T10:36:00.566Z,536.2926
2023-04-08T10:37:01.842Z,528.8779
2023-04-08T10:38:03.029Z,534.2471
2023-04-08T10:39:04.116Z,527.8551
2023-04-08T10:40:05.439Z,524.9148
2023-04-08T10:41:06.516Z,530.0284
2023-04-08T10:42:07.796Z,531.4346
2023-04-08T10:44:08.116Z,510.4360
2023-04-08T10:45:41.405Z,479.0372
2023-04-08T10:46:41.603Z,452.8779
2023-04-08T10:47:41.817Z,418.8663
2023-04-08T10:48:43.170Z,391.3210
2023-04-08T10:49:44.260Z,370.9943
2023-04-08T10:50:45.519Z,365.7528
2023-04-08T10:51:46.714Z,367.5426
2023-04-08T10:52:46.742Z,385.3779
2023-04-08T10:53:48.084Z,407.9403
2023-04-08T10:54:49.181Z,434.7869
2023-04-08T10:55:50.416Z,456.6477
2023-04-08T10:56:50.616Z,483.8808
2023-04-08T10:57:51.932Z,509.1903
2023-04-08T10:58:52.935Z,538.9025
2023-04-08T10:59:54.230Z,576.9460
2023-04-08T11:00:55.422Z,632.4290
2023-04-08T11:01:55.675Z,689.2587
2023-04-08T11:02:56.160Z,738.3482
2023-04-08T11:03:57.491Z,768.2143
2023-04-08T11:04:58.094Z,791.1628
2023-04-08T11:05:58.279Z,789.8547
2023-04-08T11:06:59.363Z,789.0341
2023-04-08T11:08:00.648Z,787.2443
2023-04-08T11:09:01.076Z,782.2866
2023-04-08T11:10:01.455Z,787.8925
2023-04-08T11:11:03.210Z,794.6591
2023-04-08T11:12:03.223Z,803.5901
2023-04-08T11:13:03.258Z,806.3372
2023-04-08T11:14:04.335Z,799.3269
2023-04-08T11:15:05.568Z,800.0284
2023-04-08T11:16:17.277Z,785.7994
2023-04-08T11:17:06.877Z,785.8929
2023-04-08T11:18:07.928Z,782.7907
2023-04-08T11:19:08.158Z,782.5291
2023-04-08T11:20:08.132Z,768.5320
2023-04-08T11:21:09.327Z,757.1512
2023-04-08T11:22:09.325Z,751.0029
2023-04-08T11:23:10.318Z,744.8011
2023-04-08T11:24:11.651Z,747.6136
2023-04-08T11:25:12.654Z,747.4858
2023-04-08T11:26:13.797Z,735.0852
2023-04-08T11:27:15.026Z,726.1364
2023-04-08T11:28:16.077Z,722.9404
2023-04-08T11:29:17.354Z,717.9545
2023-04-08T11:30:18.351Z,715.0142
2023-04-08T11:31:20.652Z,721.6619
2023-04-08T11:32:19.809Z,735.0915
2023-04-08T11:33:19.804Z,749.6948
2023-04-08T11:34:21.002Z,762.0596
2023-04-08T11:35:21.933Z,768.4517
2023-04-08T11:36:22.125Z,775.4651
2023-04-08T11:37:23.086Z,773.9489
2023-04-08T11:38:24.372Z,765.8949
2023-04-08T11:39:25.405Z,758.4801
2023-04-08T11:40:26.348Z,754.2733
2023-04-08T11:41:27.484Z,749.4034
2023-04-08T11:42:28.392Z,743.0114
2023-04-08T11:43:29.536Z,752.9830
2023-04-08T11:44:30.517Z,754.6449
2023-04-08T11:45:31.642Z,753.2386
2023-04-08T11:46:31.867Z,757.2820
2023-04-08T11:47:33.109Z,761.9318
2023-04-08T11:48:33.157Z,765.6541
2023-04-08T11:49:34.179Z,767.6846
2023-04-08T11:50:35.311Z,783.1534
2023-04-08T11:51:36.304Z,803.2244
2023-04-08T11:52:37.518Z,825.3409
2023-04-08T11:53:38.797Z,850.5256
2023-04-08T11:54:39.481Z,869.2587
2023-04-08T11:55:40.670Z,882.2301
2023-04-08T11:56:41.642Z,888.8779
2023-04-08T11:57:42.831Z,898.4659
2023-04-08T11:58:44.108Z,913.9346
2023-04-08T11:59:45.126Z,919.4318
2023-04-08T12:00:46.318Z,925.0568
2023-04-08T12:01:47.526Z,928.5085
2023-04-08T12:02:48.214Z,921.0610
2023-04-08T12:03:49.529Z,856.9622
2023-04-08T12:04:49.589Z,746.1161
2023-04-08T12:05:49.603Z,660.7413
2023-04-08T12:06:50.565Z,561.9886
2023-04-08T12:07:51.731Z,471.7329
2023-04-08T12:08:52.913Z,400.1421
2023-04-08T12:09:54.154Z,357.6989
2023-04-08T12:10:55.429Z,333.5369
2023-04-08T12:11:56.236Z,320.9464
2023-04-08T12:12:57.443Z,311.6761
2023-04-08T12:13:58.647Z,303.2386
2023-04-08T12:14:59.347Z,298.1250
2023-04-08T12:15:59.428Z,298.5175
2023-04-08T12:16:59.444Z,303.6192
2023-04-08T12:17:59.651Z,303.7500